Time;durP1;ratioP1;P1;durP2;ratioP2;P2;SDS_P1;SDS_P2;PMS_P1;PMS_P2;Temp;Humidity;BMP_temperature;BMP_pressure;BME280_temperature;BME280_humidity;BME280_pressure;Samples;Min_cycle;Max_cycle;Signal;HPM_P1;HPM_P2
2021/10/16 00:02:08;;;;;;;;;;;;;;;9.12;100.00;100074.83;1653406;85;20185;-80
2021/10/16 00:04:35;;;;;;;;;;;;;;;9.10;100.00;100078.58;1652794;85;20205;-78
2021/10/16 00:07:01;;;;;;;;;;;;;;;9.12;100.00;100071.34;1650504;85;20744;-79
2021/10/16 00:09:27;;;;;;;;;;;;;;;9.13;100.00;100073.01;1653544;85;20159;-78
2021/10/16 00:11:52;;;;;;;;;;;;;;;9.19;100.00;100077.69;1655704;85;21707;-79
2021/10/16 00:14:18;;;;;;;;;;;;;;;9.19;100.00;100077.69;1655287;85;20142;-80
2021/10/16 00:16:43;;;;;;;;;;;;;;;9.24;100.00;100079.38;1636271;85;20159;-80
2021/10/16 00:19:11;;;;;;;;;;;;;;;9.27;100.00;100072.48;1643289;86;20893;-80
2021/10/16 00:21:38;;;;;;;;;;;;;;;9.27;100.00;100072.48;1636955;86;20308;-80
2021/10/16 00:24:05;;;;;;;;;;;;;;;9.32;100.00;100070.25;1640426;86;21117;-80
2021/10/16 00:26:31;;;;;;;;;;;;;;;9.32;100.00;100079.48;1613560;86;20229;-80
2021/10/16 00:28:57;;;;;;;;;;;;;;;9.32;100.00;100067.62;1641431;86;20148;-79
2021/10/16 00:31:23;;;;;;;;;;;;;;;9.34;100.00;100074.87;1638440;86;20224;-80
2021/10/16 00:33:52;;;;;;;;;;;;;;;9.40;100.00;100075.24;1641436;86;20135;-80
2021/10/16 00:36:20;;;;;;;;;;;;;;;9.41;100.00;100075.59;1640970;86;20159;-80
2021/10/16 00:38:46;;;;;;;;;;;;;;;9.29;100.00;100075.83;1638356;86;20162;-80
2021/10/16 00:41:16;;;;;;;;;;;;;;;9.27;100.00;100080.39;1637153;86;20136;-80
2021/10/16 00:43:41;;;;;;;;;;;;;;;9.29;100.00;100085.05;1644916;86;20526;-80
2021/10/16 00:46:08;;;;;;;;;;;;;;;9.27;100.00;100084.34;1625680;86;20157;-79
2021/10/16 00:48:35;;;;;;;;;;;;;;;9.24;100.00;100087.28;1625447;86;21019;-79
2021/10/16 00:51:00;;;;;;;;;;;;;;;9.37;100.00;100088.25;1626055;87;20208;-79
2021/10/16 00:53:26;;;;;;;;;;;;;;;9.33;100.00;100087.70;1627786;86;20460;-79
2021/10/16 00:55:53;;;;;;;;;;;;;;;9.28;100.00;100091.28;1629094;86;20824;-78
2021/10/16 00:58:19;;;;;;;;;;;;;;;9.28;100.00;100088.65;1627884;87;20153;-78
2021/10/16 01:00:48;;;;;;;;;;;;;;;9.23;100.00;100085.64;1627786;87;21931;-78
2021/10/16 01:03:13;;;;;;;;;;;;;;;9.28;100.00;100087.33;1629888;87;20208;-78
2021/10/16 01:05:40;;;;;;;;;;;;;;;9.23;100.00;100096.18;1628550;87;20133;-79
2021/10/16 01:08:10;;;;;;;;;;;;;;;9.27;100.00;100092.75;1598331;86;20840;-78
2021/10/16 01:10:38;;;;;;;;;;;;;;;9.32;100.00;100091.33;1629750;87;20203;-79
2021/10/16 01:13:06;;;;;;;;;;;;;;;9.33;100.00;100100.88;1624214;86;20701;-79
2021/10/16 01:15:35;;;;;;;;;;;;;;;9.39;100.00;100096.01;1628332;86;20171;-79
2021/10/16 01:18:00;;;;;;;;;;;;;;;9.29;100.00;100094.27;1629076;86;20228;-79
2021/10/16 01:20:27;;;;;;;;;;;;;;;9.32;100.00;100091.33;1630654;86;20178;-80
2021/10/16 01:22:53;;;;;;;;;;;;;;;9.27;100.00;100098.02;1630171;86;20227;-78
2021/10/16 01:25:20;;;;;;;;;;;;;;;9.21;100.00;100095.98;1630637;86;22637;-79
2021/10/16 01:27:47;;;;;;;;;;;;;;;9.23;100.00;100088.28;1629565;86;20505;-79
2021/10/16 01:30:16;;;;;;;;;;;;;;;9.23;100.00;100101.92;1626319;86;20235;-79
2021/10/16 01:32:45;;;;;;;;;;;;;;;9.25;100.00;100094.72;1603842;87;20124;-79
2021/10/16 01:35:12;;;;;;;;;;;;;;;9.22;100.00;100098.47;1630256;85;20175;-79
2021/10/16 01:37:42;;;;;;;;;;;;;;;9.18;100.00;100093.64;1629388;86;22315;-79
2021/10/16 01:40:10;;;;;;;;;;;;;;;9.24;100.00;100101.77;1628363;86;20537;-79
2021/10/16 01:42:37;;;;;;;;;;;;;;;9.23;100.00;100105.41;1648027;84;20441;-79
2021/10/16 01:45:07;;;;;;;;;;;;;;;9.25;100.00;100108.70;1623810;86;20328;-79
2021/10/16 01:47:39;;;;;;;;;;;;;;;9.18;100.00;100114.72;1650619;85;20188;-80
2021/10/16 01:50:08;;;;;;;;;;;;;;;9.18;100.00;100117.35;1648385;85;20193;-80
2021/10/16 01:52:33;;;;;;;;;;;;;;;9.15;100.00;100112.73;1626502;85;20186;-79
2021/10/16 01:55:01;;;;;;;;;;;;;;;9.19;100.00;100109.30;1650873;85;20534;-80
2021/10/16 01:57:26;;;;;;;;;;;;;;;9.20;100.00;100110.97;1649709;85;20222;-79
2021/10/16 01:59:53;;;;;;;;;;;;;;;9.21;100.00;100107.84;1646763;85;20182;-79
2021/10/16 02:02:19;;;;;;;;;;;;;;;9.21;100.00;100124.46;1625439;86;21146;-78
2021/10/16 02:04:44;;;;;;;;;;;;;;;9.19;100.00;100117.20;1648930;85;20154;-78
2021/10/16 02:07:10;;;;;;;;;;;;;;;9.24;100.00;100120.22;1650861;85;20506;-79
2021/10/16 02:09:36;;;;;;;;;;;;;;;9.28;100.00;100125.54;1649114;85;20837;-79
2021/10/16 02:12:01;;;;;;;;;;;;;;;9.28;100.00;100120.27;1650419;85;20121;-79
2021/10/16 02:14:27;;;;;;;;;;;;;;;9.31;100.00;100122.61;1623449;85;22496;-80
2021/10/16 02:16:52;;;;;;;;;;;;;;;9.23;100.00;100122.53;1649850;85;20194;-80
2021/10/16 02:19:18;;;;;;;;;;;;;;;9.27;100.00;100133.09;1649155;85;20171;-79
2021/10/16 02:21:45;;;;;;;;;;;;;;;9.27;100.00;100135.73;1650569;85;20909;-77
2021/10/16 02:24:12;;;;;;;;;;;;;;;9.25;100.00;100132.42;1648108;85;20997;-79
2021/10/16 02:26:38;;;;;;;;;;;;;;;9.22;100.00;100130.08;1646756;85;21043;-80
2021/10/16 02:29:05;;;;;;;;;;;;;;;9.24;100.00;100149.20;1651625;85;20194;-79
2021/10/16 02:31:34;;;;;;;;;;;;;;;9.21;100.00;100141.59;1651433;85;20198;-79
2021/10/16 02:33:59;;;;;;;;;;;;;;;9.25;100.00;100137.69;1648539;85;20460;-79
2021/10/16 02:36:26;;;;;;;;;;;;;;;9.26;100.00;100141.15;1645518;85;20163;-79
2021/10/16 02:38:53;;;;;;;;;;;;;;;9.18;100.00;100151.11;1626319;86;21039;-80
2021/10/16 02:41:19;;;;;;;;;;;;;;;9.20;100.00;100153.13;1643642;85;20510;-80
2021/10/16 02:43:46;;;;;;;;;;;;;;;9.15;100.00;100144.81;1623542;86;20129;-80
2021/10/16 02:46:14;;;;;;;;;;;;;;;9.18;100.00;100152.42;1630175;86;20184;-80
2021/10/16 02:48:39;;;;;;;;;;;;;;;9.21;100.00;100148.67;1626088;86;20191;-80
2021/10/16 02:51:05;;;;;;;;;;;;;;;9.16;100.00;100149.11;1625377;86;21170;-80
2021/10/16 02:53:32;;;;;;;;;;;;;;;9.14;100.00;100148.44;1605225;87;20247;-80
2021/10/16 02:55:57;;;;;;;;;;;;;;;9.14;100.00;100155.03;1600298;87;20208;-79
2021/10/16 02:58:25;;;;;;;;;;;;;;;9.21;100.00;100164.48;1623977;86;20433;-80
2021/10/16 03:00:51;;;;;;;;;;;;;;;9.18;100.00;100165.59;1623246;86;20610;-80
2021/10/16 03:03:17;;;;;;;;;;;;;;;9.15;100.00;100164.57;1590583;87;20979;-79
2021/10/16 03:05:44;;;;;;;;;;;;;;;9.10;100.00;100169.45;1622438;86;20155;-79
2021/10/16 03:08:13;;;;;;;;;;;;;;;9.14;100.00;100170.84;1628277;86;20155;-80
2021/10/16 03:10:43;;;;;;;;;;;;;;;9.11;100.00;100165.86;1621974;87;20481;-80
2021/10/16 03:13:15;;;;;;;;;;;;;;;9.14;100.00;100161.62;1626755;86;20536;-80
2021/10/16 03:15:43;;;;;;;;;;;;;;;9.16;100.00;100165.73;1629104;86;21290;-80
2021/10/16 03:18:08;;;;;;;;;;;;;;;9.12;100.00;100172.77;1624470;87;20170;-80
2021/10/16 03:20:34;;;;;;;;;;;;;;;9.13;100.00;100178.39;1626477;86;20175;-79
2021/10/16 03:23:00;;;;;;;;;;;;;;;9.13;100.00;100177.07;1605369;86;21174;-80
2021/10/16 03:25:27;;;;;;;;;;;;;;;9.15;100.00;100179.91;1627665;86;20185;-81
2021/10/16 03:27:54;;;;;;;;;;;;;;;9.15;100.00;100192.23;1627799;86;20172;-80
2021/10/16 03:30:20;;;;;;;;;;;;;;;9.06;100.00;100193.11;1628712;86;20148;-80
2021/10/16 03:32:46;;;;;;;;;;;;;;;9.08;100.00;100185.91;1627564;86;20510;-80
2021/10/16 03:35:13;;;;;;;;;;;;;;;9.07;100.00;100188.19;1625671;86;20334;-81
2021/10/16 03:37:38;;;;;;;;;;;;;;;9.06;100.00;100199.69;1598784;87;20564;-80
2021/10/16 03:40:07;;;;;;;;;;;;;;;9.10;100.00;100194.48;1624684;86;21059;-80
2021/10/16 03:42:37;;;;;;;;;;;;;;;9.04;100.00;100201.16;1630767;86;20182;-80
2021/10/16 03:45:05;;;;;;;;;;;;;;;9.05;100.00;100196.23;1628206;86;20179;-80
2021/10/16 03:47:33;;;;;;;;;;;;;;;9.10;100.00;100199.75;1627612;87;21293;-80
2021/10/16 03:50:00;;;;;;;;;;;;;;;9.12;100.00;100207.87;1627740;86;20156;-80
2021/10/16 03:52:28;;;;;;;;;;;;;;;9.10;100.00;100205.02;1631992;86;21093;-79
2021/10/16 03:54:53;;;;;;;;;;;;;;;9.13;100.00;100199.47;1627734;86;20147;-81
2021/10/16 03:57:21;;;;;;;;;;;;;;;9.11;100.00;100204.05;1630945;86;20148;-80
2021/10/16 03:59:47;;;;;;;;;;;;;;;9.10;100.00;100212.42;1630863;86;20227;-80
2021/10/16 04:02:13;;;;;;;;;;;;;;;9.14;100.00;100215.62;1631413;86;20492;-81
2021/10/16 04:04:41;;;;;;;;;;;;;;;9.11;100.00;100217.23;1606277;86;21234;-81
2021/10/16 04:07:07;;;;;;;;;;;;;;;9.14;100.00;100205.09;1626116;86;20349;-80
2021/10/16 04:09:32;;;;;;;;;;;;;;;9.11;100.00;100210.64;1627224;86;20147;-80
2021/10/16 04:12:02;;;;;;;;;;;;;;;9.15;100.00;100210.67;1633381;86;20168;-80
2021/10/16 04:14:28;;;;;;;;;;;;;;;9.25;100.00;100218.06;1603797;86;20235;-81
2021/10/16 04:16:55;;;;;;;;;;;;;;;9.25;100.00;100216.74;1627932;86;21102;-81
2021/10/16 04:19:23;;;;;;;;;;;;;;;9.13;100.00;100217.41;1627870;86;20208;-80
2021/10/16 04:21:48;;;;;;;;;;;;;;;9.18;100.00;100222.73;1629774;86;20171;-80
2021/10/16 04:24:14;;;;;;;;;;;;;;;9.19;100.00;100214.69;1632033;86;20801;-79
2021/10/16 04:26:41;;;;;;;;;;;;;;;9.17;100.00;100210.06;1629647;86;20531;-80
2021/10/16 04:29:09;;;;;;;;;;;;;;;9.14;100.00;100212.98;1629646;86;20950;-80
2021/10/16 04:31:36;;;;;;;;;;;;;;;9.13;100.00;100217.91;1648524;84;20210;-81
2021/10/16 04:34:04;;;;;;;;;;;;;;;9.15;100.00;100210.67;1654436;85;20175;-80
2021/10/16 04:36:30;;;;;;;;;;;;;;;9.13;100.00;100210.00;1646236;86;20620;-80
2021/10/16 04:38:58;;;;;;;;;;;;;;;9.12;100.00;100203.06;1644053;86;20359;-81
2021/10/16 04:41:25;;;;;;;;;;;;;;;9.10;100.00;100208.48;1621314;86;21512;-81
2021/10/16 04:43:53;;;;;;;;;;;;;;;9.14;100.00;100214.30;1664492;84;20165;-81
2021/10/16 04:46:22;;;;;;;;;;;;;;;9.14;100.00;100212.98;1667943;84;20196;-81
2021/10/16 04:48:48;;;;;;;;;;;;;;;9.08;100.00;100217.52;1665807;84;20186;-81
2021/10/16 04:51:13;;;;;;;;;;;;;;;9.11;100.00;100219.86;1664845;84;20162;-81
2021/10/16 04:53:42;;;;;;;;;;;;;;;9.10;100.00;100226.09;1639205;86;21893;-81
2021/10/16 04:56:12;;;;;;;;;;;;;;;9.08;100.00;100226.73;1665565;84;20447;-81
2021/10/16 04:58:38;;;;;;;;;;;;;;;9.06;100.00;100237.42;1667868;84;20151;-80
2021/10/16 05:01:05;;;;;;;;;;;;;;;9.03;100.00;100236.89;1669010;84;20197;-80
2021/10/16 05:03:30;;;;;;;;;;;;;;;9.02;100.00;100236.53;1665626;84;20304;-80
2021/10/16 05:05:56;;;;;;;;;;;;;;;9.04;100.00;100235.89;1664901;84;21768;-80
2021/10/16 05:08:22;;;;;;;;;;;;;;;9.02;100.00;100251.02;1684236;85;20174;-80
2021/10/16 05:10:47;;;;;;;;;;;;;;;9.04;100.00;100238.03;1685712;83;20175;-81
2021/10/16 05:13:13;;;;;;;;;;;;;;;9.11;100.00;100241.76;1687061;83;20760;-81
2021/10/16 05:15:42;;;;;;;;;;;;;;;9.14;100.00;100245.92;1685974;83;20128;-81
2021/10/16 05:18:11;;;;;;;;;;;;;;;9.15;100.00;100244.92;1685817;83;20182;-80
2021/10/16 05:20:37;;;;;;;;;;;;;;;9.16;100.00;100253.19;1683246;83;20194;-80
2021/10/16 05:23:02;;;;;;;;;;;;;;;9.13;100.00;100257.42;1658862;85;20534;-80
2021/10/16 05:25:30;;;;;;;;;;;;;;;9.12;100.00;100250.48;1684998;83;20119;-80
2021/10/16 05:27:58;;;;;;;;;;;;;;;9.14;100.00;100259.09;1674088;83;20963;-80
2021/10/16 05:30:25;;;;;;;;;;;;;;;9.12;100.00;100262.34;1686365;83;20549;-80
2021/10/16 05:32:50;;;;;;;;;;;;;;;9.07;100.00;100265.90;1685531;83;20137;-81
2021/10/16 05:35:16;;;;;;;;;;;;;;;9.14;100.00;100273.59;1684984;83;20436;-81
2021/10/16 05:37:42;;;;;;;;;;;;;;;9.14;100.00;100272.27;1685462;83;20746;-80
2021/10/16 05:40:10;;;;;;;;;;;;;;;9.12;100.00;100273.73;1654137;85;20289;-80
2021/10/16 05:42:38;;;;;;;;;;;;;;;9.09;100.00;100278.43;1685697;83;21110;-80
2021/10/16 05:45:06;;;;;;;;;;;;;;;9.18;100.00;100289.43;1685499;83;20484;-80
2021/10/16 05:47:36;;;;;;;;;;;;;;;9.11;100.00;100281.77;1656400;85;20183;-80
2021/10/16 05:50:01;;;;;;;;;;;;;;;9.04;100.00;100289.89;1684748;83;20139;-79
2021/10/16 05:52:27;;;;;;;;;;;;;;;9.07;100.00;100289.61;1684803;83;20216;-81
2021/10/16 05:54:55;;;;;;;;;;;;;;;9.09;100.00;100277.11;1685409;83;21128;-82
2021/10/16 05:57:22;;;;;;;;;;;;;;;9.11;100.00;100285.73;1685561;83;20543;-81
2021/10/16 05:59:49;;;;;;;;;;;;;;;9.10;100.00;100291.95;1684460;83;20159;-82
2021/10/16 06:02:16;;;;;;;;;;;;;;;9.16;100.00;100307.20;1685932;83;20258;-81
2021/10/16 06:04:42;;;;;;;;;;;;;;;9.06;100.00;100301.95;1686779;83;20187;-81
2021/10/16 06:07:10;;;;;;;;;;;;;;;9.07;100.00;100313.31;1684572;83;21158;-81
2021/10/16 06:09:38;;;;;;;;;;;;;;;9.09;100.00;100304.31;1657438;85;20901;-79
2021/10/16 06:12:04;;;;;;;;;;;;;;;9.11;100.00;100304.17;1687063;83;20508;-79
2021/10/16 06:14:32;;;;;;;;;;;;;;;9.18;100.00;100313.14;1683710;83;20230;-80
2021/10/16 06:16:58;;;;;;;;;;;;;;;9.24;99.64;100319.66;1684892;83;20187;-81
2021/10/16 06:19:24;;;;;;;;;;;;;;;9.10;100.00;100320.44;1686473;83;21170;-80
2021/10/16 06:21:51;;;;;;;;;;;;;;;9.07;100.00;100326.48;1684699;83;20391;-80
2021/10/16 06:24:17;;;;;;;;;;;;;;;9.07;100.00;100314.14;1684213;83;20369;-82
2021/10/16 06:26:43;;;;;;;;;;;;;;;9.18;99.92;100321.05;1682658;83;20925;-80
2021/10/16 06:29:08;;;;;;;;;;;;;;;9.19;99.37;100320.08;1657533;85;20146;-80
2021/10/16 06:31:37;;;;;;;;;;;;;;;9.13;99.92;100331.19;1685885;83;21168;-80
2021/10/16 06:34:03;;;;;;;;;;;;;;;9.16;99.99;100330.41;1688521;83;20950;-80
2021/10/16 06:36:29;;;;;;;;;;;;;;;9.11;100.00;100328.70;1687059;83;20138;-80
2021/10/16 06:38:55;;;;;;;;;;;;;;;9.18;99.63;100336.86;1683965;83;20662;-80
2021/10/16 06:41:26;;;;;;;;;;;;;;;9.13;99.71;100341.23;1655453;85;20679;-79
2021/10/16 06:43:51;;;;;;;;;;;;;;;9.18;99.70;100350.03;1687783;83;20695;-79
2021/10/16 06:46:19;;;;;;;;;;;;;;;9.24;99.65;100336.28;1688671;83;20138;-79
2021/10/16 06:48:49;;;;;;;;;;;;;;;9.17;99.38;100357.61;1641157;85;20164;-80
2021/10/16 06:51:14;;;;;;;;;;;;;;;9.20;99.11;100345.47;1673626;84;20219;-79
2021/10/16 06:53:41;;;;;;;;;;;;;;;9.23;99.29;100354.41;1671367;85;20176;-81
2021/10/16 06:56:09;;;;;;;;;;;;;;;9.20;99.20;100371.81;1670336;84;21050;-81
2021/10/16 06:58:36;;;;;;;;;;;;;;;9.20;99.35;100358.64;1673051;84;20492;-80
2021/10/16 07:01:02;;;;;;;;;;;;;;;9.24;99.48;100370.54;1662334;85;20160;-79
2021/10/16 07:03:28;;;;;;;;;;;;;;;9.16;99.69;100371.74;1644953;85;20131;-80
2021/10/16 07:05:56;;;;;;;;;;;;;;;9.25;99.73;100368.27;1684610;83;20131;-80
2021/10/16 07:08:25;;;;;;;;;;;;;;;9.27;99.69;100374.21;1665456;85;21171;-80
2021/10/16 07:10:49;;;;;;;;;;;;;;;9.26;98.85;100380.94;1686686;83;20114;-79
2021/10/16 07:13:14;;;;;;;;;;;;;;;9.26;98.80;100381.79;1689631;83;20182;-79
2021/10/16 07:15:40;;;;;;;;;;;;;;;9.29;98.95;100378.88;1684210;83;20138;-79
2021/10/16 07:18:07;;;;;;;;;;;;;;;9.38;98.41;100381.62;1687868;83;20229;-79
2021/10/16 07:20:33;;;;;;;;;;;;;;;9.40;98.00;100379.66;1684911;83;21005;-80
2021/10/16 07:23:02;;;;;;;;;;;;;;;9.41;96.96;100405.05;1687477;83;20162;-80
2021/10/16 07:25:30;;;;;;;;;;;;;;;9.42;97.07;100404.09;1687702;83;20164;-80
2021/10/16 07:27:56;;;;;;;;;;;;;;;9.41;96.47;100402.42;1674697;84;20170;-81
2021/10/16 07:30:22;;;;;;;;;;;;;;;9.43;96.05;100396.51;1672853;84;20132;-81
2021/10/16 07:32:48;;;;;;;;;;;;;;;9.40;95.63;100404.70;1683623;83;21168;-81
2021/10/16 07:35:15;;;;;;;;;;;;;;;9.48;95.80;100403.52;1683496;83;20359;-79
2021/10/16 07:37:41;;;;;;;;;;;;;;;9.51;95.39;100409.83;1684400;83;20115;-79
2021/10/16 07:40:11;;;;;;;;;;;;;;;9.47;95.16;100415.85;1683763;83;20281;-80
2021/10/16 07:42:39;;;;;;;;;;;;;;;9.49;95.37;100413.92;1686997;83;20514;-80
2021/10/16 07:45:06;;;;;;;;;;;;;;;9.56;95.02;100414.17;1680303;83;22059;-79
2021/10/16 07:47:32;;;;;;;;;;;;;;;9.59;94.78;100410.44;1681263;83;20139;-80
2021/10/16 07:49:58;;;;;;;;;;;;;;;9.57;93.82;100430.35;1676651;83;20215;-81
2021/10/16 07:52:24;;;;;;;;;;;;;;;9.45;93.72;100436.27;1677041;83;20241;-81
2021/10/16 07:54:49;;;;;;;;;;;;;;;9.30;94.33;100421.86;1678257;83;20183;-81
2021/10/16 07:57:20;;;;;;;;;;;;;;;9.40;94.22;100419.20;1680536;83;21105;-81
2021/10/16 07:59:45;;;;;;;;;;;;;;;9.36;94.00;100418.66;1677839;83;20214;-79
2021/10/16 08:02:12;;;;;;;;;;;;;;;9.36;93.24;100434.47;1679776;83;20952;-78
2021/10/16 08:04:40;;;;;;;;;;;;;;;9.37;93.27;100439.25;1677896;83;20175;-79
2021/10/16 08:07:07;;;;;;;;;;;;;;;9.43;93.30;100430.77;1688025;83;20203;-80
2021/10/16 08:09:35;;;;;;;;;;;;;;;9.43;92.77;100421.55;1685754;83;21125;-79
2021/10/16 08:12:04;;;;;;;;;;;;;;;9.41;92.16;100424.33;1682604;83;20195;-78
2021/10/16 08:14:31;;;;;;;;;;;;;;;9.39;91.49;100433.37;1685328;83;20191;-78
2021/10/16 08:16:56;;;;;;;;;;;;;;;9.44;91.42;100424.05;1684481;83;20589;-78
2021/10/16 08:19:25;;;;;;;;;;;;;;;9.49;91.47;100426.25;1684778;83;20736;-79
2021/10/16 08:21:52;;;;;;;;;;;;;;;9.50;91.16;100441.11;1656819;83;22147;-80
2021/10/16 08:24:18;;;;;;;;;;;;;;;9.45;91.71;100436.27;1684200;83;20469;-80
2021/10/16 08:26:48;;;;;;;;;;;;;;;9.39;91.92;100443.91;1685603;83;20219;-79
2021/10/16 08:29:15;;;;;;;;;;;;;;;9.49;92.08;100440.75;1684338;83;20179;-79
2021/10/16 08:31:45;;;;;;;;;;;;;;;9.46;91.95;100444.98;1652530;85;20257;-80
2021/10/16 08:34:13;;;;;;;;;;;;;;;9.55;91.45;100441.50;1683730;83;20174;-79
2021/10/16 08:36:39;;;;;;;;;;;;;;;9.55;91.33;100434.91;1677383;83;20404;-81
2021/10/16 08:39:05;;;;;;;;;;;;;;;9.63;91.41;100444.28;1686857;83;20158;-80
2021/10/16 08:41:34;;;;;;;;;;;;;;;9.68;91.08;100442.04;1686566;83;20163;-79
2021/10/16 08:44:02;;;;;;;;;;;;;;;9.73;91.74;100447.37;1689348;83;20088;-80
2021/10/16 08:46:28;;;;;;;;;;;;;;;9.74;91.49;100439.80;1686905;85;21009;-80
2021/10/16 08:48:55;;;;;;;;;;;;;;;9.74;90.14;100460.89;1687926;83;20145;-79
2021/10/16 08:51:20;;;;;;;;;;;;;;;9.76;88.98;100450.55;1686888;83;20203;-80
2021/10/16 08:53:47;;;;;;;;;;;;;;;9.76;88.94;100457.64;1685634;83;20199;-78
2021/10/16 08:56:14;;;;;;;;;;;;;;;9.78;89.70;100453.05;1684611;83;20156;-79
2021/10/16 08:58:43;;;;;;;;;;;;;;;9.84;89.41;100459.06;1684811;83;21130;-80
2021/10/16 09:01:09;;;;;;;;;;;;;;;9.77;88.86;100465.88;1683053;83;20325;-79
2021/10/16 09:03:46;;;;;;;;;;;;;;;9.81;88.46;100465.95;1656596;83;20239;-80
2021/10/16 09:06:20;;;;;;;;;;;;;;;9.82;88.25;100474.19;1685032;83;20218;-80
2021/10/16 09:09:03;;;;;;;;;;;;;;;9.90;88.15;100463.77;1687726;83;20139;-80
2021/10/16 09:11:35;;;;;;;;;;;;;;;9.92;88.59;100473.68;1683955;84;20685;-80
2021/10/16 09:14:07;;;;;;;;;;;;;;;10.00;88.18;100471.14;1682466;84;20183;-79
2021/10/16 09:16:49;;;;;;;;;;;;;;;9.90;88.04;100466.41;1655166;84;20187;-80
2021/10/16 09:19:19;;;;;;;;;;;;;;;9.98;87.62;100474.42;1683456;84;20188;-79
2021/10/16 09:21:57;;;;;;;;;;;;;;;9.94;87.79;100471.72;1677216;85;20188;-80
2021/10/16 09:24:28;;;;;;;;;;;;;;;10.03;87.58;100477.45;1682543;84;21254;-79
2021/10/16 09:26:58;;;;;;;;;;;;;;;10.10;87.21;100481.69;1683144;85;20210;-79
2021/10/16 09:29:28;;;;;;;;;;;;;;;10.09;87.29;100481.83;1683136;84;20243;-79
2021/10/16 09:31:59;;;;;;;;;;;;;;;10.09;87.05;100510.85;1684481;83;20158;-80
2021/10/16 09:34:30;;;;;;;;;;;;;;;10.02;86.08;100503.52;1662865;84;20121;-80
2021/10/16 09:37:21;;;;;;;;;;;;;;;10.06;85.89;100487.72;1656231;85;20153;-79
2021/10/16 09:39:58;;;;;;;;;;;;;;;10.12;85.74;100486.81;1662470;84;20177;-79
2021/10/16 09:42:42;;;;;;;;;;;;;;;10.15;86.18;100497.09;1663357;84;20152;-80
2021/10/16 09:45:10;;;;;;;;;;;;;;;10.23;86.27;100495.86;1629096;85;20146;-78
2021/10/16 09:47:41;;;;;;;;;;;;;;;10.16;85.97;100497.41;1604454;86;20198;-80
2021/10/16 09:50:08;;;;;;;;;;;;;;;10.29;85.51;100500.56;1612336;87;21142;-80
2021/10/16 09:52:41;;;;;;;;;;;;;;;10.37;84.85;100494.08;1602414;87;20211;-78
2021/10/16 09:55:09;;;;;;;;;;;;;;;10.35;83.74;100494.73;1631103;86;20212;-80
2021/10/16 09:57:37;;;;;;;;;;;;;;;10.48;83.76;100497.02;1628216;86;20211;-80
2021/10/16 10:00:05;;;;;;;;;;;;;;;10.38;82.87;100495.75;1628628;86;20160;-79
2021/10/16 10:02:35;;;;;;;;;;;;;;;10.46;82.43;100495.52;1631008;86;21146;-80
2021/10/16 10:05:06;;;;;;;;;;;;;;;10.57;81.94;100505.88;1629009;86;20251;-78
2021/10/16 10:07:32;;;;;;;;;;;;;;;10.45;82.46;100502.59;1605343;87;20203;-78
2021/10/16 10:10:04;;;;;;;;;;;;;;;10.52;82.71;100498.40;1631641;86;21208;-78
2021/10/16 10:12:32;;;;;;;;;;;;;;;10.50;80.40;100507.44;1631161;86;20171;-78
2021/10/16 10:15:02;;;;;;;;;;;;;;;10.52;80.38;100505.50;1628923;86;20180;-80
2021/10/16 10:17:33;;;;;;;;;;;;;;;10.64;79.87;100510.89;1622305;86;20993;-79
2021/10/16 10:20:03;;;;;;;;;;;;;;;10.71;79.91;100508.52;1603787;86;20291;-79
2021/10/16 10:22:34;;;;;;;;;;;;;;;10.67;80.18;100517.20;1630706;86;20635;-79
2021/10/16 10:25:02;;;;;;;;;;;;;;;10.75;80.28;100501.47;1631531;86;20153;-79
2021/10/16 10:27:28;;;;;;;;;;;;;;;10.83;78.86;100501.19;1629879;86;21325;-80
2021/10/16 10:30:00;;;;;;;;;;;;;;;10.81;79.14;100501.84;1605580;87;20367;-79
2021/10/16 10:32:28;;;;;;;;;;;;;;;10.78;79.23;100497.20;1629582;86;20807;-79
2021/10/16 10:34:57;;;;;;;;;;;;;;;10.75;79.09;100510.71;1607058;87;20180;-79
2021/10/16 10:37:49;;;;;;;;;;;;;;;10.73;78.94;100504.72;1605421;86;36997;-79
2021/10/16 10:40:24;;;;;;;;;;;;;;;10.75;78.85;100514.67;1630174;87;20100;-79
2021/10/16 10:42:59;;;;;;;;;;;;;;;10.83;78.67;100498.55;1630225;86;20449;-79
2021/10/16 10:45:38;;;;;;;;;;;;;;;10.73;78.59;100508.69;1638994;86;20096;-79
2021/10/16 10:48:13;;;;;;;;;;;;;;;10.56;79.08;100509.48;1643421;85;20107;-79
2021/10/16 10:50:48;;;;;;;;;;;;;;;10.57;78.80;100503.23;1613607;85;20133;-78
2021/10/16 10:53:34;;;;;;;;;;;;;;;10.57;79.74;100497.95;1640582;85;21413;-79
2021/10/16 10:56:09;;;;;;;;;;;;;;;10.46;79.98;100515.33;1642104;85;20378;-80
2021/10/16 10:58:57;;;;;;;;;;;;;;;10.48;80.45;100498.84;1647375;85;20141;-80
2021/10/16 11:01:54;;;;;;;;;;;;;;;10.65;80.10;100502.00;1641660;85;20175;-78
2021/10/16 11:04:40;;;;;;;;;;;;;;;10.51;79.53;100507.79;1641091;85;20175;-79
2021/10/16 11:07:10;;;;;;;;;;;;;;;10.50;79.66;100520.64;1639203;85;21199;-79
2021/10/16 11:09:39;;;;;;;;;;;;;;;10.45;79.74;100501.77;1646671;85;20649;-79
2021/10/16 11:12:07;;;;;;;;;;;;;;;10.46;78.94;100508.73;1637409;85;20195;-79
2021/10/16 11:14:35;;;;;;;;;;;;;;;10.41;79.32;100511.80;1639341;85;20304;-79
2021/10/16 11:17:04;;;;;;;;;;;;;;;10.40;79.31;100496.43;1612297;85;20548;-79
2021/10/16 11:19:29;;;;;;;;;;;;;;;10.44;79.49;100502.73;1641435;85;21182;-79
2021/10/16 11:21:56;;;;;;;;;;;;;;;10.54;80.08;100501.71;1642571;85;20230;-77
2021/10/16 11:24:26;;;;;;;;;;;;;;;10.56;80.16;100506.84;1641709;85;20734;-80
2021/10/16 11:26:58;;;;;;;;;;;;;;;10.43;80.62;100509.02;1640816;85;21017;-78
2021/10/16 11:29:34;;;;;;;;;;;;;;;10.40;81.08;100501.71;1643689;85;20202;-78
2021/10/16 11:32:20;;;;;;;;;;;;;;;10.47;81.19;100505.09;1642757;85;21276;-79
2021/10/16 11:35:06;;;;;;;;;;;;;;;10.32;80.80;100500.27;1638829;85;20167;-78
2021/10/16 11:37:44;;;;;;;;;;;;;;;10.37;80.54;100499.86;1614940;85;20153;-78
2021/10/16 11:40:12;;;;;;;;;;;;;;;10.49;80.48;100497.38;1640512;85;20208;-78
2021/10/16 11:42:41;;;;;;;;;;;;;;;10.54;80.23;100496.93;1637178;85;20183;-83
2021/10/16 11:45:15;;;;;;;;;;;;;;;10.43;80.15;100498.45;1664404;85;21021;-79
2021/10/16 11:47:46;;;;;;;;;;;;;;;10.45;79.73;100496.49;1676516;85;20172;-79
2021/10/16 11:50:17;;;;;;;;;;;;;;;10.45;79.04;100500.45;1682302;83;20439;-79
2021/10/16 11:52:46;;;;;;;;;;;;;;;10.43;78.91;100499.78;1683868;83;20193;-79
2021/10/16 11:55:23;;;;;;;;;;;;;;;10.40;79.00;100503.03;1651160;85;20610;-80
2021/10/16 11:57:50;;;;;;;;;;;;;;;10.39;79.71;100496.11;1683441;83;21047;-79
2021/10/16 12:00:28;;;;;;;;;;;;;;;10.56;79.75;100491.83;1632390;85;20147;-79
2021/10/16 12:02:56;;;;;;;;;;;;;;;10.58;79.93;100497.81;1682942;83;20171;-80
2021/10/16 12:05:25;;;;;;;;;;;;;;;10.66;80.07;100489.15;1683726;85;20207;-79
2021/10/16 12:07:51;;;;;;;;;;;;;;;10.66;80.13;100501.03;1684797;85;20212;-79
2021/10/16 12:10:30;;;;;;;;;;;;;;;10.58;80.49;100497.81;1655166;85;21169;-80
2021/10/16 12:12:59;;;;;;;;;;;;;;;10.71;80.24;100484.23;1642705;85;20211;-77
2021/10/16 12:15:46;;;;;;;;;;;;;;;10.63;79.30;100498.69;1684015;83;20183;-81
2021/10/16 12:18:27;;;;;;;;;;;;;;;10.70;79.40;100484.39;1684688;84;20734;-78
2021/10/16 12:21:01;;;;;;;;;;;;;;;10.71;79.43;100490.84;1684936;83;20208;-78
2021/10/16 12:23:44;;;;;;;;;;;;;;;10.54;79.30;100506.17;1682798;83;21337;-79
2021/10/16 12:26:29;;;;;;;;;;;;;;;10.44;80.29;100489.54;1684494;83;20155;-81
2021/10/16 12:28:57;;;;;;;;;;;;;;;10.52;80.30;100487.84;1658885;84;20181;-79
2021/10/16 12:31:24;;;;;;;;;;;;;;;10.53;80.95;100493.94;1685962;84;20257;-78
2021/10/16 12:34:08;;;;;;;;;;;;;;;10.44;81.34;100494.82;1683775;83;20178;-80
2021/10/16 12:36:42;;;;;;;;;;;;;;;10.45;81.51;100503.09;1680125;83;21661;-78
2021/10/16 12:39:10;;;;;;;;;;;;;;;10.44;81.02;100500.10;1684406;83;20187;-80
2021/10/16 12:41:46;;;;;;;;;;;;;;;10.48;79.55;100499.66;1683506;83;20179;-77
2021/10/16 12:44:13;;;;;;;;;;;;;;;10.29;78.79;100509.80;1687032;83;20119;-76
2021/10/16 12:46:38;;;;;;;;;;;;;;;10.32;78.75;100494.98;1685667;83;20195;-76